Time;durP1;ratioP1;P1;durP2;ratioP2;P2;SDS_P1;SDS_P2;PMS_P1;PMS_P2;Temp;Humidity;BMP_temperature;BMP_pressure;BME280_temperature;BME280_humidity;BME280_pressure;Samples;Min_cycle;Max_cycle;Signal;HPM_P1;HPM_P2
2022/12/18 00:01:42;;;;;;;4.10;3.15;;;;;;;13.20;29.45;101064.63;5045869;28;20523;-88
2022/12/18 00:04:21;;;;;;;4.90;3.25;;;;;;;13.21;29.65;101060.94;5041370;28;20124;-88
2022/12/18 00:06:46;;;;;;;6.20;3.63;;;;;;;13.21;29.75;101076.19;5038239;28;20032;-88
2022/12/18 00:09:12;;;;;;;6.15;3.33;;;;;;;13.16;29.72;101084.81;5036753;28;20555;-89
2022/12/18 00:11:38;;;;;;;5.65;3.30;;;;;;;13.25;29.49;101072.97;5015533;28;20029;-88
2022/12/18 00:14:03;;;;;;;7.35;3.95;;;;;;;13.26;29.55;101069.25;5034810;28;20025;-88
2022/12/18 00:16:30;;;;;;;5.55;3.42;;;;;;;13.24;29.32;101060.53;5022771;28;20037;-88
2022/12/18 00:18:57;;;;;;;5.32;3.10;;;;;;;13.23;29.17;101061.56;5017868;28;20116;-87
2022/12/18 00:21:23;;;;;;;4.97;2.97;;;;;;;13.22;29.61;101057.22;5016048;28;20571;-88
2022/12/18 00:23:49;;;;;;;5.28;3.15;;;;;;;13.20;29.85;101043.16;5013766;28;20033;-88
2022/12/18 00:26:22;;;;;;;4.68;2.90;;;;;;;13.22;29.53;101043.81;5039048;28;20400;-88
2022/12/18 00:28:51;;;;;;;4.68;3.08;;;;;;;13.25;29.76;101062.22;5036718;28;20477;-88
2022/12/18 00:31:19;;;;;;;5.40;3.67;;;;;;;13.18;29.58;101055.94;5034155;28;20031;-88
2022/12/18 00:33:45;;;;;;;4.93;3.05;;;;;;;13.18;29.55;101050.56;5018110;28;20413;-88
2022/12/18 00:36:15;;;;;;;5.93;3.33;;;;;;;13.22;29.54;101059.91;5041068;28;20024;-88
2022/12/18 00:38:41;;;;;;;5.47;3.40;;;;;;;13.18;29.70;101055.94;5019704;28;20040;-88
2022/12/18 00:41:08;;;;;;;5.00;2.72;;;;;;;13.22;29.80;101061.75;5021417;28;20075;-88
2022/12/18 00:43:33;;;;;;;5.53;3.00;;;;;;;13.22;29.60;101057.22;5020521;28;20028;-88
2022/12/18 00:45:59;;;;;;;4.55;2.90;;;;;;;13.22;29.68;101051.03;5038642;28;20025;-88
2022/12/18 00:48:25;;;;;;;5.32;3.40;;;;;;;13.20;30.02;101045.84;5040728;28;20032;-88
2022/12/18 00:50:50;;;;;;;3.92;2.78;;;;;;;13.24;29.91;101049.81;5033390;28;20032;-87
2022/12/18 00:53:16;;;;;;;4.63;3.05;;;;;;;13.25;29.90;101053.34;5037402;28;20032;-88
2022/12/18 00:55:42;;;;;;;4.50;2.72;;;;;;;13.19;30.03;101040.66;5012892;28;20119;-88
2022/12/18 00:58:08;;;;;;;4.32;2.80;;;;;;;13.23;29.76;101040.09;5019744;28;20029;-88
2022/12/18 01:00:34;;;;;;;5.22;2.90;;;;;;;13.20;30.01;101023.56;5036221;28;20028;-88
2022/12/18 01:02:59;;;;;;;4.78;2.85;;;;;;;13.26;30.05;101020.94;5035601;28;20484;-88
2022/12/18 01:05:25;;;;;;;5.63;3.13;;;;;;;13.26;29.72;101015.56;5023660;28;20063;-88
2022/12/18 01:07:51;;;;;;;4.97;2.72;;;;;;;13.25;29.79;101013.09;5042175;28;20035;-88
2022/12/18 01:10:16;;;;;;;4.60;2.92;;;;;;;13.22;29.89;101014.28;5036491;28;20550;-88
2022/12/18 01:12:42;;;;;;;5.30;2.83;;;;;;;13.22;29.85;101003.53;5033807;28;20028;-87
2022/12/18 01:15:08;;;;;;;5.03;3.00;;;;;;;13.26;30.22;101006.66;5043916;28;20140;-88
2022/12/18 01:17:34;;;;;;;6.22;2.88;;;;;;;13.27;29.71;100998.44;5023428;28;20032;-88
2022/12/18 01:20:00;;;;;;;4.43;2.60;;;;;;;13.23;30.20;100997.16;5051581;28;20564;-88
2022/12/18 01:22:26;;;;;;;5.40;2.95;;;;;;;13.27;29.81;100997.63;5034289;28;20036;-88
2022/12/18 01:24:51;;;;;;;4.20;2.80;;;;;;;13.22;29.91;100987.44;5022931;28;20156;-88
2022/12/18 01:27:17;;;;;;;3.67;2.33;;;;;;;13.26;29.78;101009.34;5019491;28;20031;-88
2022/12/18 01:29:42;;;;;;;4.85;2.75;;;;;;;13.25;30.03;100996.97;5014341;28;20366;-88
2022/12/18 01:32:08;;;;;;;5.57;2.67;;;;;;;13.23;30.17;100994.47;5016836;28;20065;-88
2022/12/18 01:34:36;;;;;;;4.75;2.38;;;;;;;13.24;30.15;100990.75;5043395;28;20029;-87
2022/12/18 01:37:05;;;;;;;4.25;2.58;;;;;;;13.24;29.95;100984.56;5017455;28;20025;-88
2022/12/18 01:39:33;;;;;;;4.22;2.35;;;;;;;13.22;30.21;101000.84;5049950;28;20799;-88
2022/12/18 01:42:03;;;;;;;3.55;2.28;;;;;;;13.26;30.04;100987.88;5052376;28;20093;-88
2022/12/18 01:44:47;;;;;;;3.85;2.50;;;;;;;13.19;30.37;100977.06;5023893;28;20492;-88
2022/12/18 01:47:38;;;;;;;3.38;2.50;;;;;;;13.27;30.12;100990.38;5061388;28;20025;-88
2022/12/18 01:50:40;;;;;;;3.78;2.10;;;;;;;13.22;30.05;100974.00;5060517;28;20032;-88
2022/12/18 01:53:19;;;;;;;4.68;2.63;;;;;;;13.26;30.22;100982.50;5021914;28;20193;-88
2022/12/18 01:55:48;;;;;;;4.22;2.45;;;;;;;13.24;30.05;100968.47;5056075;28;20159;-88
2022/12/18 01:58:14;;;;;;;3.45;2.30;;;;;;;13.21;30.12;100985.78;5034817;28;20032;-88
2022/12/18 02:00:39;;;;;;;5.13;2.72;;;;;;;13.21;29.89;100979.56;5036424;28;20416;-88
2022/12/18 02:03:05;;;;;;;3.25;1.95;;;;;;;13.20;29.86;100992.16;5034342;28;20039;-89
2022/12/18 02:05:43;;;;;;;4.07;2.58;;;;;;;13.24;30.09;100992.63;5017831;28;20036;-89
2022/12/18 02:08:16;;;;;;;3.20;2.30;;;;;;;13.22;30.05;100986.63;5062020;28;20369;-89
2022/12/18 02:10:44;;;;;;;4.47;2.42;;;;;;;13.19;30.53;100969.03;5029997;28;20131;-89
2022/12/18 02:13:25;;;;;;;3.63;2.42;;;;;;;13.24;30.27;100980.03;5027658;28;20024;-89
2022/12/18 02:16:10;;;;;;;4.25;2.47;;;;;;;13.19;30.35;100966.34;5060532;28;20432;-88
2022/12/18 02:18:37;;;;;;;2.97;2.10;;;;;;;13.19;30.33;100982.44;5030155;28;20044;-89
2022/12/18 02:21:32;;;;;;;2.60;1.88;;;;;;;13.21;30.44;100969.69;5015065;28;20025;-88
2022/12/18 02:24:00;;;;;;;;;;;;;;;13.22;30.45;100982.06;5016125;28;20125;-89
2022/12/18 02:26:41;;;;;;;3.50;2.00;;;;;;;13.12;30.54;100952.03;5061303;28;20450;-88
2022/12/18 02:29:28;;;;;;;3.55;2.13;;;;;;;13.16;30.20;100945.28;5033804;28;20032;-89
2022/12/18 02:32:14;;;;;;;2.75;2.00;;;;;;;13.17;30.34;100957.66;5017369;28;20107;-89
2022/12/18 02:34:40;;;;;;;3.00;1.83;;;;;;;13.13;30.25;100951.84;5049212;28;20029;-88
2022/12/18 02:37:09;;;;;;;2.85;1.70;;;;;;;13.18;30.32;100958.47;5040578;28;20025;-88
2022/12/18 02:39:36;;;;;;;3.42;1.95;;;;;;;13.15;30.64;100954.34;5013911;28;20428;-89
2022/12/18 02:42:07;;;;;;;2.65;1.92;;;;;;;13.17;30.27;100952.28;5011195;28;20033;-89
2022/12/18 02:44:42;;;;;;;3.58;2.17;;;;;;;13.20;30.36;100957.28;5053634;28;20032;-89
2022/12/18 02:47:09;;;;;;;2.75;1.85;;;;;;;13.17;30.50;100963.00;5037193;28;20025;-89
2022/12/18 02:49:40;;;;;;;4.72;2.00;;;;;;;13.15;30.58;100965.06;5019151;28;20071;-89
2022/12/18 02:52:42;;;;;;;3.08;1.85;;;;;;;13.17;30.65;100965.69;5038196;28;20031;-89
2022/12/18 02:55:08;;;;;;;3.20;2.00;;;;;;;13.17;30.59;100957.66;5059639;28;20313;-88
2022/12/18 02:57:55;;;;;;;2.75;1.95;;;;;;;13.17;30.41;100963.00;5046634;28;20037;-89
2022/12/18 03:00:54;;;;;;;2.60;1.85;;;;;;;13.15;30.32;100959.69;5053416;28;20124;-89
2022/12/18 03:03:41;;;;;;;3.75;2.13;;;;;;;13.10;30.38;100962.13;5046053;28;20032;-89
2022/12/18 03:06:28;;;;;;;3.80;2.38;;;;;;;13.05;30.67;100946.59;5028129;28;20358;-89
2022/12/18 03:08:58;;;;;;;2.88;1.65;;;;;;;13.13;30.61;100946.47;5037219;28;20091;-89
2022/12/18 03:14:34;;;;;;;3.28;2.05;;;;;;;13.14;31.01;100944.59;4989930;28;20038;-91
2022/12/18 03:17:03;;;;;;;2.95;1.98;;;;;;;13.17;31.29;100941.56;4958904;28;20105;-94
2022/12/18 03:19:31;;;;;;;2.30;1.88;;;;;;;13.23;31.83;100935.44;4995158;28;20075;-89
2022/12/18 03:21:57;;;;;;;5.93;1.70;;;;;;;13.24;31.70;100936.25;5017063;28;20028;-88
2022/12/18 03:24:23;;;;;;;3.10;1.80;;;;;;;13.27;31.67;100935.88;5045411;28;20303;-88
2022/12/18 03:26:53;;;;;;;1.95;1.60;;;;;;;13.22;31.27;100927.56;5023420;28;20028;-89
2022/12/18 03:29:22;;;;;;;2.75;1.52;;;;;;;13.19;31.36;100944.03;5037990;28;20409;-88
2022/12/18 03:31:59;;;;;;;3.95;1.83;;;;;;;13.09;31.47;100933.63;5042480;28;20096;-89
2022/12/18 03:34:30;;;;;;;2.38;1.50;;;;;;;13.10;31.39;100930.75;5035407;28;20033;-89
2022/12/18 03:36:56;;;;;;;4.45;1.70;;;;;;;13.10;31.50;100940.66;5033161;28;20032;-89
2022/12/18 03:39:21;;;;;;;3.08;1.80;;;;;;;13.13;31.66;100945.66;5026866;28;20115;-88
2022/12/18 03:41:51;;;;;;;2.53;1.90;;;;;;;13.10;31.72;100937.97;5033260;28;20469;-88
2022/12/18 03:44:50;;;;;;;2.90;1.60;;;;;;;13.11;31.56;100936.97;5045306;28;20024;-89
2022/12/18 03:47:20;;;;;;;2.10;1.60;;;;;;;13.06;31.46;100929.47;5019436;28;20033;-89
2022/12/18 03:49:50;;;;;;;2.90;1.80;;;;;;;13.12;31.45;100935.91;5047717;28;20074;-89
2022/12/18 03:52:32;;;;;;;2.60;1.55;;;;;;;13.17;31.60;100943.41;5044159;28;20384;-89
2022/12/18 03:54:58;;;;;;;2.78;1.85;;;;;;;13.13;31.28;100941.09;5012008;28;20396;-88
2022/12/18 03:57:34;;;;;;;3.53;1.90;;;;;;;13.13;31.48;100929.53;5060057;28;20028;-89
2022/12/18 04:00:13;;;;;;;3.42;1.70;;;;;;;13.05;31.66;100927.81;5041142;28;20493;-88
2022/12/18 04:02:42;;;;;;;3.00;1.45;;;;;;;13.12;31.74;100944.81;5016833;28;20205;-88
2022/12/18 04:05:08;;;;;;;3.45;1.65;;;;;;;13.09;31.59;100933.63;5029487;28;20296;-88
2022/12/18 04:07:34;;;;;;;2.78;1.77;;;;;;;13.08;31.56;100937.34;5024053;28;20025;-89
2022/12/18 04:09:59;;;;;;;2.85;1.83;;;;;;;13.08;31.53;100932.78;5033576;28;20078;-89
2022/12/18 04:12:28;;;;;;;2.33;1.52;;;;;;;13.05;31.74;100927.81;5021360;28;20044;-88
2022/12/18 04:14:54;;;;;;;2.75;1.60;;;;;;;13.02;31.74;100921.97;5035195;28;20580;-89
2022/12/18 04:17:20;;;;;;;1.92;1.42;;;;;;;12.99;31.87;100920.53;5017578;28;20456;-88
2022/12/18 04:19:45;;;;;;;4.80;1.65;;;;;;;13.02;31.89;100927.34;5036933;28;20048;-88
2022/12/18 04:22:12;;;;;;;2.30;1.42;;;;;;;13.06;31.62;100928.66;5012353;28;20120;-88
2022/12/18 04:24:39;;;;;;;1.50;1.33;;;;;;;13.03;31.59;100919.13;5056901;28;20024;-88
2022/12/18 04:27:05;;;;;;;2.85;1.70;;;;;;;13.08;31.58;100934.66;5022318;28;20035;-89
2022/12/18 04:29:31;;;;;;;2.58;1.60;;;;;;;13.02;31.94;100924.66;5043433;28;20388;-89
2022/12/18 04:31:56;;;;;;;2.70;1.42;;;;;;;13.04;31.83;100928.00;5059699;28;20036;-89
2022/12/18 04:34:23;;;;;;;2.60;1.60;;;;;;;13.02;31.85;100921.97;5058348;28;20119;-88
2022/12/18 04:36:53;;;;;;;1.75;1.25;;;;;;;13.02;31.93;100921.97;5051934;28;20020;-89
2022/12/18 04:39:20;;;;;;;2.30;1.60;;;;;;;13.03;31.67;100918.28;5051581;28;20020;-89
2022/12/18 04:41:47;;;;;;;2.50;1.50;;;;;;;13.02;31.65;100913.94;5016697;28;20128;-89
2022/12/18 04:44:17;;;;;;;2.35;1.52;;;;;;;13.03;31.82;100920.97;5046937;28;20025;-89
2022/12/18 04:46:44;;;;;;;3.25;1.77;;;;;;;12.99;31.92;100908.94;5037914;28;20025;-89
2022/12/18 04:49:12;;;;;;;2.03;1.63;;;;;;;12.98;32.12;100915.34;5015855;28;20025;-89
2022/12/18 04:51:39;;;;;;;1.77;1.50;;;;;;;13.05;31.82;100922.44;5039882;28;20024;-89
2022/12/18 04:54:06;;;;;;;3.10;1.50;;;;;;;13.01;31.78;100917.66;5043512;28;20033;-89
2022/12/18 04:56:33;;;;;;;2.47;1.58;;;;;;;13.05;31.64;100919.75;5055723;28;20025;-88
2022/12/18 04:58:58;;;;;;;2.25;1.42;;;;;;;13.07;31.63;100908.81;5030930;28;20036;-89
2022/12/18 05:01:24;;;;;;;2.55;1.10;;;;;;;13.03;31.92;100903.00;5038412;28;20021;-89
2022/12/18 05:03:51;;;;;;;2.58;1.65;;;;;;;13.06;32.00;100902.63;5059337;28;20492;-88
2022/12/18 05:06:16;;;;;;;3.78;1.70;;;;;;;13.07;31.77;100901.63;5017094;28;20021;-89
2022/12/18 05:08:42;;;;;;;2.05;1.30;;;;;;;13.07;31.80;100904.31;5038315;28;20047;-89
2022/12/18 05:11:09;;;;;;;2.58;1.38;;;;;;;13.06;31.79;100896.44;5035146;28;20279;-88
2022/12/18 05:13:35;;;;;;;2.55;1.27;;;;;;;13.02;31.91;100889.78;5032002;28;20021;-89
2022/12/18 05:16:01;;;;;;;2.55;1.50;;;;;;;12.99;32.15;100884.78;5039958;28;20382;-88
2022/12/18 05:18:26;;;;;;;2.33;1.60;;;;;;;13.01;31.90;100888.97;5019621;28;20059;-89
2022/12/18 05:20:52;;;;;;;1.85;1.30;;;;;;;12.98;32.08;100883.16;5044941;28;20262;-89
2022/12/18 05:23:18;;;;;;;2.38;1.30;;;;;;;12.95;32.13;100885.19;5040186;28;20028;-89
2022/12/18 05:26:00;;;;;;;2.63;1.30;;;;;;;12.95;31.83;100879.84;5031782;28;20032;-89
2022/12/18 05:28:26;;;;;;;2.47;1.50;;;;;;;13.00;31.84;100886.47;5027630;28;20378;-89
2022/12/18 05:30:53;;;;;;;3.17;1.63;;;;;;;12.99;32.32;100884.78;5032806;28;20025;-89
2022/12/18 05:33:19;;;;;;;1.77;1.05;;;;;;;13.03;32.22;100880.72;5044191;28;20074;-89
2022/12/18 05:35:55;;;;;;;2.28;1.20;;;;;;;12.91;32.27;100878.53;5036135;28;20120;-88
2022/12/18 05:38:21;;;;;;;1.98;1.20;;;;;;;12.98;31.98;100893.88;5032943;28;20124;-89
2022/12/18 05:40:55;;;;;;;2.00;1.40;;;;;;;12.96;32.20;100897.56;5056260;28;20032;-88
2022/12/18 05:43:22;;;;;;;1.88;1.23;;;;;;;12.98;31.88;100893.88;5033213;28;20024;-88
2022/12/18 05:45:47;;;;;;;1.70;1.13;;;;;;;12.95;32.39;100895.94;5033474;28;20283;-88
2022/12/18 05:48:13;;;;;;;1.70;1.38;;;;;;;13.00;32.35;100897.19;5011980;28;20025;-88
2022/12/18 05:50:40;;;;;;;2.95;1.42;;;;;;;12.97;32.27;100898.44;5025329;28;20025;-88
2022/12/18 05:53:07;;;;;;;2.05;1.33;;;;;;;13.00;31.98;100897.19;5032518;28;20037;-88
2022/12/18 05:55:37;;;;;;;1.98;1.17;;;;;;;12.99;32.07;100903.59;5037544;28;20028;-88
2022/12/18 05:58:03;;;;;;;2.63;1.50;;;;;;;12.99;32.08;100906.25;5033397;28;20112;-88
2022/12/18 06:00:28;;;;;;;2.45;1.52;;;;;;;12.99;32.57;100895.53;5016107;28;20535;-89
2022/12/18 06:02:54;;;;;;;1.60;1.33;;;;;;;12.93;32.33;100906.00;5017953;28;20025;-89
2022/12/18 06:05:20;;;;;;;2.28;1.30;;;;;;;12.96;32.47;100908.31;5049568;28;20017;-88
2022/12/18 06:07:45;;;;;;;2.88;1.52;;;;;;;12.95;32.35;100912.03;5043967;28;20060;-89
2022/12/18 06:10:11;;;;;;;2.33;1.70;;;;;;;12.94;32.44;100910.34;5025819;28;20460;-89
2022/12/18 06:12:37;;;;;;;1.92;1.23;;;;;;;12.96;32.15;100911.00;5034895;28;20033;-88
2022/12/18 06:15:03;;;;;;;1.42;1.00;;;;;;;13.01;32.31;100914.97;5034183;28;20027;-88
2022/12/18 06:17:32;;;;;;;2.50;1.23;;;;;;;12.99;32.34;100914.31;5043619;28;20115;-88
2022/12/18 06:19:58;;;;;;;3.35;1.40;;;;;;;12.99;32.43;100911.63;5025155;28;20040;-88
2022/12/18 06:22:23;;;;;;;2.15;1.30;;;;;;;13.02;32.31;100919.31;5032639;28;20021;-88
2022/12/18 06:24:55;;;;;;;1.75;1.30;;;;;;;12.98;32.44;100912.66;5019445;28;20077;-88
2022/12/18 06:27:21;;;;;;;2.35;1.30;;;;;;;12.95;32.40;100920.09;5030427;28;20040;-88
2022/12/18 06:29:47;;;;;;;1.90;1.20;;;;;;;13.00;32.47;100918.66;5020430;28;20234;-89
2022/12/18 06:32:13;;;;;;;1.95;1.30;;;;;;;12.96;32.61;100915.53;5039884;28;20529;-88
2022/12/18 06:34:41;;;;;;;4.43;1.58;;;;;;;13.00;32.25;100915.97;5046635;28;20297;-89
2022/12/18 06:37:07;;;;;;;2.47;1.20;;;;;;;12.96;32.21;100927.09;5019675;28;20071;-89
2022/12/18 06:39:33;;;;;;;1.90;1.17;;;;;;;12.94;32.41;100917.59;5036409;28;20560;-89
2022/12/18 06:41:58;;;;;;;2.67;1.27;;;;;;;12.97;32.39;100911.84;5043375;28;20517;-89
2022/12/18 06:44:24;;;;;;;3.30;1.42;;;;;;;12.94;32.35;100915.72;5019561;28;20029;-88
2022/12/18 06:46:49;;;;;;;2.47;1.45;;;;;;;13.01;32.64;100920.34;5040436;28;20067;-89
2022/12/18 06:49:21;;;;;;;1.73;1.27;;;;;;;13.00;32.54;100919.50;5034830;28;20032;-89
2022/12/18 06:51:47;;;;;;;3.08;1.10;;;;;;;12.97;32.54;100919.91;5035191;28;20041;-89
2022/12/18 06:54:12;;;;;;;2.25;1.42;;;;;;;12.95;32.28;100917.41;5040852;28;20081;-88
2022/12/18 06:56:38;;;;;;;1.75;1.10;;;;;;;12.93;32.52;100914.06;5040914;28;20544;-89
2022/12/18 06:59:04;;;;;;;1.42;0.93;;;;;;;12.94;32.51;100912.22;5032993;28;20061;-88
2022/12/18 07:01:29;;;;;;;1.67;1.10;;;;;;;12.88;32.86;100916.50;5041991;28;20032;-89
2022/12/18 07:03:56;;;;;;;2.70;1.30;;;;;;;12.93;32.83;100919.41;5055022;28;20372;-89
2022/12/18 07:06:23;;;;;;;1.98;1.15;;;;;;;12.94;32.50;100926.47;5046986;28;20232;-89
2022/12/18 09:57:20;;;;;;;1.35;0.90;;;;;;;11.77;33.44;100873.59;6023293;22;2739098;-86
2022/12/18 09:59:58;;;;;;;2.53;1.15;;;;;;;11.61;33.31;100847.03;6102406;23;20329;-86
2022/12/18 10:02:25;;;;;;;2.55;1.13;;;;;;;11.64;33.01;100846.63;6077992;23;20025;-86
2022/12/18 10:05:03;;;;;;;2.08;1.13;;;;;;;11.74;33.31;100865.94;6101067;23;20006;-86
2022/12/18 10:07:44;;;;;;;3.90;1.35;;;;;;;11.91;33.05;100861.25;6054910;23;20261;-86
2022/12/18 10:10:20;;;;;;;1.50;1.00;;;;;;;11.96;32.86;100868.75;6078347;23;20014;-86
2022/12/18 10:12:55;;;;;;;3.00;1.33;;;;;;;12.00;33.14;100862.84;6102418;23;20453;-86
2022/12/18 10:15:28;;;;;;;4.05;1.13;;;;;;;11.95;33.08;100857.22;6099651;23;20517;-86
2022/12/18 10:18:23;;;;;;;2.23;1.30;;;;;;;11.97;32.75;100838.25;6102568;23;20494;-86
2022/12/18 10:20:51;;;;;;;1.35;1.00;;;;;;;12.03;33.07;100851.75;6079922;23;20313;-86
2022/12/18 10:23:27;;;;;;;1.27;0.93;;;;;;;12.07;33.08;100860.25;6076835;23;20449;-86
2022/12/18 10:26:04;;;;;;;2.47;1.23;;;;;;;12.04;32.91;100855.28;6101425;23;20346;-86
2022/12/18 10:28:30;;;;;;;1.42;1.10;;;;;;;11.94;33.22;100827.94;6075647;23;20374;-86
2022/12/18 10:30:56;;;;;;;1.90;1.05;;;;;;;12.10;33.08;100841.13;6100372;23;20012;-86
2022/12/18 10:33:23;;;;;;;2.35;1.23;;;;;;;12.08;33.38;100840.47;6100499;23;19998;-86
2022/12/18 10:36:09;;;;;;;3.22;1.50;;;;;;;12.13;33.13;100838.06;6074905;23;20013;-86
2022/12/18 10:38:34;;;;;;;1.77;0.98;;;;;;;11.77;33.11;100787.91;6114594;23;20042;-86
2022/12/18 10:41:02;;;;;;;2.28;0.95;;;;;;;11.87;33.11;100800.22;6118171;23;20382;-86
2022/12/18 10:43:38;;;;;;;1.60;1.20;;;;;;;11.84;32.91;100804.06;6120275;23;20319;-86
2022/12/18 10:46:09;;;;;;;1.73;1.00;;;;;;;12.16;33.23;100843.06;6047457;23;20014;-86
2022/12/18 10:48:47;;;;;;;2.30;1.25;;;;;;;12.16;33.12;100829.66;6120429;23;20088;-85
2022/12/18 10:51:27;;;;;;;3.58;1.10;;;;;;;11.92;33.15;100781.78;6094309;23;19998;-86
2022/12/18 10:53:56;;;;;;;1.33;0.80;;;;;;;11.86;33.62;100777.09;6095263;23;20006;-86
2022/12/18 10:56:21;;;;;;;1.98;1.00;;;;;;;11.91;33.28;100778.22;6095648;23;20009;-86
2022/12/18 10:58:56;;;;;;;2.45;1.10;;;;;;;12.09;33.13;100799.28;6119594;23;20073;-85
2022/12/18 11:01:21;;;;;;;1.23;1.00;;;;;;;11.98;33.34;100789.03;6121100;23;20008;-85
2022/12/18 11:04:00;;;;;;;1.60;1.08;;;;;;;11.96;33.23;100767.78;6070856;23;20005;-85
2022/12/18 11:06:25;;;;;;;3.60;1.00;;;;;;;11.98;33.32;100787.19;6095695;23;20010;-86
2022/12/18 11:09:24;;;;;;;1.65;1.05;;;;;;;12.23;33.30;100821.72;6091803;23;20086;-85
2022/12/18 11:11:54;;;;;;;1.52;0.90;;;;;;;11.96;33.34;100769.66;6120521;23;20386;-86
2022/12/18 11:14:32;;;;;;;1.77;1.02;;;;;;;11.80;33.35;100738.53;6119441;23;20199;-86
2022/12/18 11:16:58;;;;;;;1.08;0.90;;;;;;;11.91;33.47;100770.19;6120816;23;20010;-86
2022/12/18 11:19:37;;;;;;;1.67;1.02;;;;;;;12.23;33.56;100810.13;6093889;23;20002;-84
2022/12/18 11:22:41;;;;;;;1.88;1.10;;;;;;;12.06;33.48;100764.81;6095704;23;20421;-86
2022/12/18 11:25:28;;;;;;;2.17;1.08;;;;;;;12.32;33.65;100793.78;6070789;23;20017;-87
2022/12/18 11:27:59;;;;;;;3.45;1.27;;;;;;;12.28;33.91;100783.59;6071407;23;20117;-85
2022/12/18 11:30:35;;;;;;;2.22;0.85;;;;;;;12.27;35.15;100777.44;6046555;23;20409;-87
2022/12/18 11:33:20;;;;;;;1.73;1.08;;;;;;;12.42;35.21;100800.66;6095529;23;20351;-88
2022/12/18 11:35:51;;;;;;;2.00;1.20;;;;;;;12.35;35.20;100798.75;6071207;23;20199;-87
2022/12/18 11:38:28;;;;;;;3.75;1.27;;;;;;;12.31;34.79;100777.88;6119535;23;20446;-87
2022/12/18 11:41:00;;;;;;;1.45;1.00;;;;;;;12.29;35.00;100793.31;6067868;23;20426;-87
2022/12/18 11:43:44;;;;;;;3.40;1.02;;;;;;;12.27;35.15;100771.25;6071661;23;20352;-87
2022/12/18 11:46:15;;;;;;;1.77;1.08;;;;;;;12.15;34.75;100749.47;6072925;23;20021;-88
2022/12/18 11:49:01;;;;;;;1.77;1.08;;;;;;;12.28;34.82;100778.25;6046020;23;20037;-88
2022/12/18 11:51:39;;;;;;;1.48;0.98;;;;;;;12.16;34.37;100770.72;6046784;23;20430;-87
2022/12/18 11:54:12;;;;;;;1.92;1.00;;;;;;;12.30;34.44;100784.28;6047071;23;20423;-88
2022/12/18 11:56:51;;;;;;;2.92;0.98;;;;;;;12.24;34.47;100774.28;6040179;23;20018;-87
2022/12/18 11:59:51;;;;;;;1.80;1.00;;;;;;;12.36;34.36;100778.13;6089010;23;20286;-87
2022/12/18 12:02:24;;;;;;;1.70;0.95;;;;;;;12.34;34.42;100758.75;6064695;23;20007;-87
2022/12/18 12:05:06;;;;;;;1.50;0.95;;;;;;;12.29;34.23;100747.75;6086797;23;20011;-88
2022/12/18 12:07:43;;;;;;;1.35;1.10;;;;;;;12.25;34.38;100743.81;6090579;23;20399;-87
2022/12/18 12:10:32;;;;;;;1.95;1.15;;;;;;;12.32;34.27;100742.03;6037886;23;20311;-87
2022/12/18 12:13:35;;;;;;;1.30;0.90;;;;;;;12.39;34.15;100749.09;6089519;23;20006;-87
2022/12/18 12:16:07;;;;;;;1.35;0.90;;;;;;;12.21;34.53;100720.06;6089242;23;20435;-87
2022/12/18 12:18:46;;;;;;;1.10;0.90;;;;;;;12.37;34.17;100736.94;6090067;23;20448;-86
2022/12/18 12:21:50;;;;;;;1.10;0.77;;;;;;;12.34;34.11;100735.44;6087699;23;20006;-86
2022/12/18 12:24:46;;;;;;;1.17;0.90;;;;;;;12.40;34.31;100729.34;6045626;23;20017;-86
2022/12/18 12:27:20;;;;;;;1.85;0.98;;;;;;;12.43;34.36;100719.25;6091041;23;20010;-86
2022/12/18 12:29:49;;;;;;;1.23;0.95;;;;;;;12.31;34.12;100702.84;6064845;23;20088;-87
2022/12/18 12:32:20;;;;;;;1.88;0.95;;;;;;;12.37;34.08;100718.16;6064758;23;20073;-87
2022/12/18 12:34:59;;;;;;;1.05;0.80;;;;;;;12.28;34.23;100712.09;6091100;23;20014;-88
2022/12/18 12:37:40;;;;;;;1.60;1.10;;;;;;;12.40;34.18;100715.09;6089621;23;20025;-87
2022/12/18 12:40:06;;;;;;;1.77;0.90;;;;;;;12.43;34.44;100716.56;6064190;23;20014;-87
2022/12/18 12:45:34;;;;;;;2.08;1.00;;;;;;;12.29;34.12;100704.88;6087844;23;20094;-87
2022/12/18 12:48:01;;;;;;;1.77;0.80;;;;;;;12.20;34.46;100688.94;6040947;23;20351;-86
2022/12/18 12:50:27;;;;;;;1.33;1.00;;;;;;;12.37;34.15;100713.63;6090276;23;20006;-86
2022/12/18 12:52:54;;;;;;;1.70;0.95;;;;;;;12.38;34.30;100701.91;6040203;23;20014;-86
2022/12/18 12:55:22;;;;;;;1.50;0.70;;;;;;;12.42;34.22;100690.75;6066619;23;20026;-86
2022/12/18 12:58:03;;;;;;;2.15;1.10;;;;;;;12.41;33.97;100679.22;6047316;23;20010;-87
2022/12/18 13:00:34;;;;;;;1.27;0.90;;;;;;;12.40;34.05;100681.09;6097843;23;20521;-87
2022/12/18 13:03:03;;;;;;;2.22;1.00;;;;;;;12.37;34.39;100678.78;6044991;23;20006;-87
2022/12/18 13:05:48;;;;;;;1.95;1.05;;;;;;;12.33;34.20;100677.53;6070682;23;20115;-86
2022/12/18 13:08:51;;;;;;;1.38;0.90;;;;;;;12.07;34.56;100621.81;6118128;23;20427;-87
2022/12/18 13:14:22;;;;;;;2.63;1.15;;;;;;;12.33;34.13;100660.59;6120371;23;20097;-87
2022/12/18 13:16:48;;;;;;;1.95;0.90;;;;;;;12.32;34.39;100659.78;6071257;23;20304;-87
2022/12/18 13:19:25;;;;;;;2.40;1.02;;;;;;;12.32;34.29;100661.63;6066933;23;20515;-87
2022/12/18 13:21:55;;;;;;;1.60;0.88;;;;;;;12.33;34.27;100639.16;6046865;23;20018;-87
2022/12/18 13:24:27;;;;;;;1.50;1.08;;;;;;;12.46;34.39;100652.66;6045551;23;20018;-87
2022/12/18 13:26:53;;;;;;;1.80;1.10;;;;;;;12.48;34.17;100652.47;6069855;23;20459;-87
2022/12/18 13:29:43;;;;;;;1.27;1.00;;;;;;;12.39;34.09;100649.09;6046815;23;20011;-87
2022/12/18 13:32:23;;;;;;;2.00;1.10;;;;;;;12.34;34.29;100646.19;6055425;23;20101;-87
2022/12/18 13:34:50;;;;;;;1.90;1.00;;;;;;;12.33;34.60;100639.16;6044946;23;20431;-87
2022/12/18 13:37:31;;;;;;;4.15;1.70;;;;;;;12.41;34.20;100641.69;6069585;23;20006;-86
2022/12/18 13:39:57;;;;;;;2.30;1.15;;;;;;;12.40;34.31;100634.69;6094452;23;20390;-87
2022/12/18 13:45:46;;;;;;;2.42;1.10;;;;;;;12.36;34.02;100633.41;6116087;23;20056;-87
2022/12/18 13:48:21;;;;;;;2.40;1.10;;;;;;;12.36;33.93;100622.69;6032290;23;20006;-87
2022/12/18 13:51:07;;;;;;;3.08;1.10;;;;;;;12.42;34.39;100618.41;6046291;23;20045;-87
2022/12/18 13:53:42;;;;;;;1.98;0.98;;;;;;;12.37;34.06;100603.72;6069920;23;20093;-87
2022/12/18 13:56:07;;;;;;;1.70;0.98;;;;;;;12.42;34.14;100621.06;6070098;23;20035;-87
2022/12/18 13:58:33;;;;;;;1.20;0.95;;;;;;;12.32;34.31;100610.72;6068893;23;20057;-87
2022/12/18 14:00:59;;;;;;;1.63;1.10;;;;;;;12.33;34.28;100612.34;6068922;23;20025;-86
2022/12/18 14:03:26;;;;;;;1.50;0.90;;;;;;;12.39;34.56;100606.22;6044893;23;20013;-86
2022/12/18 14:05:53;;;;;;;3.00;1.10;;;;;;;12.42;34.45;100610.34;6045742;23;20010;-86
2022/12/18 14:08:19;;;;;;;2.13;1.10;;;;;;;12.43;34.20;100612.03;6046011;23;20499;-86
2022/12/18 14:10:46;;;;;;;1.90;1.15;;;;;;;12.44;34.19;100606.47;6068238;23;20014;-86
2022/12/18 14:13:17;;;;;;;2.75;1.48;;;;;;;12.36;34.19;100593.19;6047603;23;20050;-86
2022/12/18 14:15:43;;;;;;;1.73;1.00;;;;;;;12.37;34.36;100597.56;6045194;23;20014;-86
2022/12/18 14:18:46;;;;;;;1.38;1.00;;;;;;;12.53;34.10;100612.50;6047042;23;20088;-86
2022/12/18 14:21:29;;;;;;;1.52;0.95;;;;;;;12.46;34.39;100596.38;6118625;23;20024;-86
2022/12/18 14:24:13;;;;;;;2.55;1.13;;;;;;;12.42;34.53;100600.47;6046914;23;20069;-86
2022/12/18 14:26:38;;;;;;;2.85;1.30;;;;;;;12.39;34.34;100584.78;6071941;23;20233;-86
2022/12/18 14:29:27;;;;;;;1.90;1.00;;;;;;;12.42;34.39;100589.75;6070434;23;20040;-86
2022/12/18 14:32:11;;;;;;;2.47;1.25;;;;;;;12.52;34.23;100587.56;6071685;23;20016;-86
2022/12/18 14:34:37;;;;;;;1.40;1.05;;;;;;;12.47;33.98;100571.25;6109759;23;20350;-86
2022/12/18 14:37:03;;;;;;;2.42;1.08;;;;;;;12.52;34.24;100579.53;6060199;23;20006;-86
2022/12/18 14:39:28;;;;;;;1.67;0.90;;;;;;;12.44;34.38;100581.53;6042284;23;20032;-86
2022/12/18 14:41:54;;;;;;;2.50;1.08;;;;;;;12.41;34.29;100572.00;6094838;23;20038;-86
2022/12/18 14:44:21;;;;;;;2.78;1.40;;;;;;;12.41;34.50;100585.41;6068581;23;20010;-86
2022/12/18 14:46:47;;;;;;;1.85;1.00;;;;;;;12.44;34.40;100573.50;6071685;23;20006;-86